createdAt,value
2019-02-11T00:01:04.523Z,4.80
2019-02-11T00:03:44.891Z,4.70
2019-02-11T00:07:21.354Z,4.70
2019-02-11T00:10:11.690Z,4.80
2019-02-11T00:13:10.755Z,4.80
2019-02-11T00:16:06.084Z,4.80
2019-02-11T00:18:59.453Z,4.80
2019-02-11T00:21:34.908Z,4.80
2019-02-11T00:24:16.638Z,4.80
2019-02-11T00:32:50.231Z,4.90
2019-02-11T00:35:32.381Z,4.90
2019-02-11T00:38:26.985Z,4.90
2019-02-11T00:41:25.769Z,4.90
2019-02-11T00:47:46.467Z,5.00
2019-02-11T00:50:49.661Z,5.00
2019-02-11T00:57:26.133Z,5.00
2019-02-11T01:00:18.768Z,5.00
2019-02-11T01:03:31.795Z,5.00
2019-02-11T01:06:13.411Z,5.10
2019-02-11T01:09:29.849Z,5.10
2019-02-11T01:19:48.307Z,5.20
2019-02-11T01:22:42.505Z,5.30
2019-02-11T01:29:11.983Z,5.20
2019-02-11T01:32:13.158Z,5.20
2019-02-11T01:35:00.154Z,5.20
2019-02-11T01:38:07.565Z,5.20
2019-02-11T01:40:46.096Z,5.30
2019-02-11T01:43:24.392Z,5.30
2019-02-11T01:46:00.032Z,5.30
2019-02-11T01:48:34.554Z,5.30
2019-02-11T01:51:13.395Z,5.20
2019-02-11T01:54:00.953Z,5.20
2019-02-11T01:56:51.417Z,5.30
2019-02-11T01:59:33.913Z,5.30
2019-02-11T02:02:20.849Z,5.30
2019-02-11T02:05:00.955Z,5.30
2019-02-11T02:07:32.226Z,5.30
2019-02-11T02:10:16.857Z,5.30
2019-02-11T02:12:59.776Z,5.30
2019-02-11T02:15:55.115Z,5.30
2019-02-11T02:18:30.658Z,5.30
2019-02-11T02:21:07.101Z,5.20
2019-02-11T02:23:47.509Z,5.20
2019-02-11T02:26:42.986Z,5.20
2019-02-11T02:32:25.434Z,5.20
2019-02-11T02:34:58.804Z,5.20
2019-02-11T02:37:34.685Z,5.20
2019-02-11T02:40:12.928Z,5.20
2019-02-11T02:42:48.574Z,5.20
2019-02-11T02:45:40.512Z,5.20
2019-02-11T02:48:22.200Z,5.20
2019-02-11T02:50:58.207Z,5.20
2019-02-11T02:53:39.782Z,5.20
2019-02-11T02:56:35.044Z,5.10
2019-02-11T02:59:27.989Z,5.10
2019-02-11T03:02:06.623Z,5.20
2019-02-11T03:04:59.759Z,5.20
2019-02-11T03:07:37.707Z,5.20
2019-02-11T03:10:19.872Z,5.20
2019-02-11T03:13:25.626Z,5.10
2019-02-11T03:16:22.225Z,5.10
2019-02-11T03:18:59.532Z,5.10
2019-02-11T03:21:32.830Z,5.20
2019-02-11T03:24:09.518Z,5.20
2019-02-11T03:26:59.251Z,5.20
2019-02-11T03:29:37.796Z,5.20
2019-02-11T03:32:11.616Z,5.20
2019-02-11T03:34:51.552Z,5.20
2019-02-11T03:37:23.568Z,5.20
2019-02-11T03:40:11.000Z,5.20
2019-02-11T03:42:46.987Z,5.10
2019-02-11T03:45:29.669Z,5.10
2019-02-11T03:48:01.403Z,5.10
2019-02-11T03:50:45.627Z,5.10
2019-02-11T03:53:19.136Z,5.10
2019-02-11T03:56:09.006Z,5.10
2019-02-11T03:58:47.946Z,5.20
2019-02-11T04:01:30.448Z,5.20
2019-02-11T04:04:09.346Z,5.30
2019-02-11T04:06:42.346Z,5.20
2019-02-11T04:09:26.541Z,5.20
2019-02-11T04:12:11.153Z,5.20
2019-02-11T04:14:54.446Z,5.20
2019-02-11T04:17:28.410Z,5.20
2019-02-11T04:20:03.515Z,5.20
2019-02-11T04:22:49.122Z,5.20
2019-02-11T04:25:23.735Z,5.30
2019-02-11T04:28:06.328Z,5.30
2019-02-11T04:30:46.546Z,5.30
2019-02-11T04:33:25.930Z,5.30
2019-02-11T04:36:01.759Z,5.30
2019-02-11T04:38:34.869Z,5.30
2019-02-11T04:41:16.808Z,5.30
2019-02-11T04:44:04.666Z,5.30
2019-02-11T04:46:38.359Z,5.30
2019-02-11T04:49:17.508Z,5.20
2019-02-11T04:51:59.010Z,5.20
2019-02-11T04:54:40.717Z,5.20
2019-02-11T04:57:46.931Z,5.20
2019-02-11T05:00:31.513Z,5.20
2019-02-11T05:03:22.319Z,5.10
2019-02-11T05:06:01.112Z,5.10
2019-02-11T05:08:54.514Z,5.10
2019-02-11T05:11:36.511Z,5.10
2019-02-11T05:14:33.545Z,5.10
2019-02-11T05:17:19.386Z,5.10
2019-02-11T05:19:58.346Z,5.10
2019-02-11T05:22:38.973Z,5.10
2019-02-11T05:25:34.955Z,5.10
2019-02-11T05:28:16.396Z,5.10
2019-02-11T05:30:57.878Z,5.10
2019-02-11T05:45:17.965Z,5.10
2019-02-11T05:51:17.668Z,5.10
2019-02-11T05:54:02.458Z,5.20
2019-02-11T05:56:48.380Z,5.20
2019-02-11T05:59:25.375Z,5.20
2019-02-11T06:02:33.429Z,5.20
2019-02-11T06:05:46.447Z,5.20
2019-02-11T06:11:51.393Z,5.20
2019-02-11T06:14:38.395Z,5.20
2019-02-11T06:18:02.312Z,5.10
2019-02-11T06:20:51.967Z,5.10
2019-02-11T06:23:51.670Z,5.10
2019-02-11T06:27:15.469Z,5.10
2019-02-11T06:30:48.938Z,5.10
2019-02-11T06:33:31.009Z,5.20
2019-02-11T06:36:55.918Z,5.10
2019-02-11T06:40:12.172Z,5.10
2019-02-11T06:51:06.782Z,5.20
2019-02-11T06:54:30.695Z,5.10
2019-02-11T07:04:32.262Z,5.20
2019-02-11T07:07:58.654Z,5.10
2019-02-11T07:10:55.630Z,5.00
2019-02-11T07:14:20.800Z,5.00
2019-02-11T07:17:06.556Z,5.00
2019-02-11T07:20:50.581Z,5.00
2019-02-11T07:23:39.415Z,5.00
2019-02-11T07:27:27.726Z,5.00
2019-02-11T07:30:25.614Z,5.00
2019-02-11T07:33:39.552Z,5.00
2019-02-11T07:36:50.261Z,5.00
2019-02-11T07:40:02.429Z,5.10
2019-02-11T07:50:22.094Z,5.20
2019-02-11T07:51:42.072Z,5.10
2019-02-11T07:58:11.245Z,5.40
2019-02-11T08:01:30.386Z,5.40
2019-02-11T08:05:12.488Z,5.40
2019-02-11T08:16:04.264Z,5.50
2019-02-11T08:19:40.102Z,5.60
2019-02-11T08:23:13.616Z,5.60
2019-02-11T08:29:57.455Z,5.80
2019-02-11T08:37:11.697Z,5.90
2019-02-11T08:40:42.480Z,5.90
2019-02-11T08:43:58.259Z,5.80
2019-02-11T08:47:48.962Z,5.90
2019-02-11T08:51:32.198Z,6.30
2019-02-11T08:59:29.761Z,8.00
2019-02-11T09:06:24.479Z,9.10
2019-02-11T09:10:17.441Z,8.60
2019-02-11T09:17:29.190Z,8.20
2019-02-11T09:20:55.642Z,8.50
2019-02-11T09:24:52.101Z,7.70
2019-02-11T09:32:08.865Z,7.10
2019-02-11T09:46:51.218Z,7.10
2019-02-11T09:50:56.762Z,8.30
2019-02-11T10:01:53.919Z,7.70
2019-02-11T10:16:25.720Z,7.60
2019-02-11T10:32:12.293Z,7.10
2019-02-11T10:54:43.465Z,6.20
2019-02-11T10:58:20.111Z,6.70
2019-02-11T11:01:56.578Z,6.70
2019-02-11T11:05:39.855Z,6.60
2019-02-11T11:13:38.254Z,7.00
2019-02-11T11:17:34.680Z,7.00
2019-02-11T11:29:44.414Z,7.00
2019-02-11T11:44:32.919Z,7.60
2019-02-11T11:52:01.021Z,7.80
2019-02-11T11:55:51.180Z,7.90
2019-02-11T11:59:28.673Z,8.20
2019-02-11T12:19:19.635Z,9.30
2019-02-11T12:26:33.090Z,8.70
2019-02-11T12:34:01.728Z,8.40
2019-02-11T12:41:25.585Z,7.40
2019-02-11T13:08:12.851Z,7.90
2019-02-11T13:16:02.762Z,8.00
2019-02-11T13:23:37.273Z,7.50
2019-02-11T13:31:45.695Z,7.20
2019-02-11T13:48:35.311Z,7.80
2019-02-11T13:51:58.740Z,7.60
2019-02-11T14:11:24.775Z,8.40
2019-02-11T14:19:08.660Z,8.60
2019-02-11T14:22:52.555Z,8.40
2019-02-11T15:12:26.831Z,7.80
2019-02-11T15:13:31.353Z,7.80
2019-02-11T15:21:17.284Z,7.60
2019-02-11T15:28:39.146Z,7.50
2019-02-11T15:32:23.541Z,7.50
2019-02-11T15:35:41.182Z,8.00
2019-02-11T15:55:36.964Z,7.40
2019-02-11T16:01:50.615Z,7.40
2019-02-11T16:25:07.763Z,7.00
2019-02-11T19:15:16.734Z,4.70
2019-02-11T19:18:51.973Z,4.70
2019-02-11T19:21:51.920Z,4.70
2019-02-11T19:25:20.944Z,4.60
2019-02-11T19:28:20.883Z,4.60
2019-02-11T19:32:01.460Z,4.70
2019-02-11T19:35:34.377Z,4.80
2019-02-11T20:10:42.512Z,5.40
2019-02-11T20:14:25.438Z,5.40
2019-02-11T20:17:35.230Z,5.40
2019-02-11T20:36:56.936Z,5.20
2019-02-11T20:40:32.209Z,5.30
2019-02-11T20:44:12.114Z,5.20
2019-02-11T21:21:45.642Z,5.70
2019-02-11T21:29:10.025Z,5.50
2019-02-11T21:37:01.204Z,5.40
2019-02-11T21:39:56.015Z,5.30
2019-02-11T21:47:08.512Z,5.40
2019-02-11T22:03:39.074Z,5.50
2019-02-11T22:10:27.361Z,5.40
2019-02-11T22:14:01.499Z,5.40
2019-02-11T22:17:04.252Z,5.40
2019-02-11T22:20:25.185Z,5.30
2019-02-11T22:23:34.000Z,5.30
2019-02-11T22:38:07.358Z,5.00
2019-02-11T22:41:57.481Z,5.00
2019-02-11T23:07:55.115Z,5.10
2019-02-11T23:30:56.647Z,4.60
2019-02-11T23:47:09.483Z,4.50
2019-02-11T23:55:38.723Z,4.40
